sensor_id;sensor_type;location;lat;lon;timestamp;P1;durP1;ratioP1;P2;durP2;ratioP2
7783;SDS011;19359;51.402;6.778;2022-09-30T00:02:19;14.57;;;5.00;;
7783;SDS011;19359;51.402;6.778;2022-09-30T00:04:47;5.25;;;4.78;;
7783;SDS011;19359;51.402;6.778;2022-09-30T00:07:13;6.45;;;4.53;;
7783;SDS011;19359;51.402;6.778;2022-09-30T00:09:40;8.15;;;4.03;;
7783;SDS011;19359;51.402;6.778;2022-09-30T00:12:07;3.88;;;3.58;;
7783;SDS011;19359;51.402;6.778;2022-09-30T00:14:34;4.68;;;4.35;;
7783;SDS011;19359;51.402;6.778;2022-09-30T00:17:01;6.07;;;5.43;;
7783;SDS011;19359;51.402;6.778;2022-09-30T00:19:28;8.38;;;4.65;;
7783;SDS011;19359;51.402;6.778;2022-09-30T00:21:56;5.60;;;5.00;;
7783;SDS011;19359;51.402;6.778;2022-09-30T00:24:23;5.85;;;4.53;;
7783;SDS011;19359;51.402;6.778;2022-09-30T00:26:50;5.47;;;4.35;;
7783;SDS011;19359;51.402;6.778;2022-09-30T00:29:16;13.70;;;4.45;;
7783;SDS011;19359;51.402;6.778;2022-09-30T00:31:43;8.25;;;4.38;;
7783;SDS011;19359;51.402;6.778;2022-09-30T00:34:10;5.90;;;5.18;;
7783;SDS011;19359;51.402;6.778;2022-09-30T00:36:38;7.15;;;5.00;;
7783;SDS011;19359;51.402;6.778;2022-09-30T00:39:11;5.18;;;4.68;;
7783;SDS011;19359;51.402;6.778;2022-09-30T00:41:40;5.60;;;4.80;;
7783;SDS011;19359;51.402;6.778;2022-09-30T00:47:21;6.88;;;4.45;;
7783;SDS011;19359;51.402;6.778;2022-09-30T00:50:10;4.60;;;3.83;;
7783;SDS011;19359;51.402;6.778;2022-09-30T00:52:42;4.93;;;4.30;;
7783;SDS011;19359;51.402;6.778;2022-09-30T00:55:14;7.03;;;3.97;;
7783;SDS011;19359;51.402;6.778;2022-09-30T00:57:55;3.60;;;3.40;;
7783;SDS011;19359;51.402;6.778;2022-09-30T01:00:24;7.13;;;4.53;;
7783;SDS011;19359;51.402;6.778;2022-09-30T01:02:51;6.40;;;4.38;;
7783;SDS011;19359;51.402;6.778;2022-09-30T01:05:19;5.05;;;4.53;;
7783;SDS011;19359;51.402;6.778;2022-09-30T01:07:46;7.65;;;4.03;;
7783;SDS011;19359;51.402;6.778;2022-09-30T01:10:15;5.53;;;4.20;;
7783;SDS011;19359;51.402;6.778;2022-09-30T01:12:42;4.30;;;3.90;;
7783;SDS011;19359;51.402;6.778;2022-09-30T01:15:09;4.45;;;4.05;;
7783;SDS011;19359;51.402;6.778;2022-09-30T01:17:40;11.85;;;3.92;;
7783;SDS011;19359;51.402;6.778;2022-09-30T01:20:20;6.05;;;3.67;;
7783;SDS011;19359;51.402;6.778;2022-09-30T01:26:07;3.45;;;3.22;;
7783;SDS011;19359;51.402;6.778;2022-09-30T01:29:03;4.93;;;3.58;;
7783;SDS011;19359;51.402;6.778;2022-09-30T01:31:52;7.68;;;4.28;;
7783;SDS011;19359;51.402;6.778;2022-09-30T01:34:30;8.05;;;3.75;;
7783;SDS011;19359;51.402;6.778;2022-09-30T01:37:06;4.30;;;3.45;;
7783;SDS011;19359;51.402;6.778;2022-09-30T01:39:45;3.75;;;3.40;;
7783;SDS011;19359;51.402;6.778;2022-09-30T01:42:18;4.18;;;3.83;;
7783;SDS011;19359;51.402;6.778;2022-09-30T01:44:53;4.20;;;3.90;;
7783;SDS011;19359;51.402;6.778;2022-09-30T01:47:29;3.38;;;3.25;;
7783;SDS011;19359;51.402;6.778;2022-09-30T01:49:59;3.88;;;3.65;;
7783;SDS011;19359;51.402;6.778;2022-09-30T01:52:31;4.03;;;3.70;;
7783;SDS011;19359;51.402;6.778;2022-09-30T01:55:05;3.67;;;3.38;;
7783;SDS011;19359;51.402;6.778;2022-09-30T01:57:38;4.57;;;3.97;;
7783;SDS011;19359;51.402;6.778;2022-09-30T02:00:10;3.35;;;3.15;;
7783;SDS011;19359;51.402;6.778;2022-09-30T02:02:41;4.32;;;3.53;;
7783;SDS011;19359;51.402;6.778;2022-09-30T02:05:14;5.72;;;3.00;;
7783;SDS011;19359;51.402;6.778;2022-09-30T02:07:45;3.83;;;3.53;;
7783;SDS011;19359;51.402;6.778;2022-09-30T02:10:16;4.03;;;3.70;;
7783;SDS011;19359;51.402;6.778;2022-09-30T02:12:46;7.28;;;4.40;;
7783;SDS011;19359;51.402;6.778;2022-09-30T02:15:18;3.58;;;3.35;;
7783;SDS011;19359;51.402;6.778;2022-09-30T02:17:49;5.40;;;3.53;;
7783;SDS011;19359;51.402;6.778;2022-09-30T02:20:21;4.18;;;3.83;;
7783;SDS011;19359;51.402;6.778;2022-09-30T02:22:52;4.30;;;3.90;;
7783;SDS011;19359;51.402;6.778;2022-09-30T02:25:23;5.47;;;4.72;;
7783;SDS011;19359;51.402;6.778;2022-09-30T02:27:54;8.20;;;4.07;;
7783;SDS011;19359;51.402;6.778;2022-09-30T02:30:24;11.35;;;4.30;;
7783;SDS011;19359;51.402;6.778;2022-09-30T02:32:54;4.38;;;4.05;;
7783;SDS011;19359;51.402;6.778;2022-09-30T02:35:25;4.03;;;3.72;;
7783;SDS011;19359;51.402;6.778;2022-09-30T02:37:55;7.72;;;4.20;;
7783;SDS011;19359;51.402;6.778;2022-09-30T02:40:26;4.35;;;4.03;;
7783;SDS011;19359;51.402;6.778;2022-09-30T02:42:56;4.32;;;3.92;;
7783;SDS011;19359;51.402;6.778;2022-09-30T02:45:23;7.55;;;4.75;;
7783;SDS011;19359;51.402;6.778;2022-09-30T02:48:03;8.13;;;4.00;;
7783;SDS011;19359;51.402;6.778;2022-09-30T02:50:42;7.72;;;4.30;;
7783;SDS011;19359;51.402;6.778;2022-09-30T02:53:15;10.35;;;4.30;;
7783;SDS011;19359;51.402;6.778;2022-09-30T02:55:49;5.50;;;4.43;;
7783;SDS011;19359;51.402;6.778;2022-09-30T02:58:28;3.67;;;3.47;;
7783;SDS011;19359;51.402;6.778;2022-09-30T03:00:58;7.63;;;4.07;;
7783;SDS011;19359;51.402;6.778;2022-09-30T03:03:28;8.85;;;4.38;;
7783;SDS011;19359;51.402;6.778;2022-09-30T03:05:58;6.03;;;3.90;;
7783;SDS011;19359;51.402;6.778;2022-09-30T03:08:24;4.25;;;3.92;;
7783;SDS011;19359;51.402;6.778;2022-09-30T03:10:51;5.97;;;4.60;;
7783;SDS011;19359;51.402;6.778;2022-09-30T03:13:26;4.25;;;3.85;;
7783;SDS011;19359;51.402;6.778;2022-09-30T03:16:11;6.60;;;4.20;;
7783;SDS011;19359;51.402;6.778;2022-09-30T03:18:51;4.45;;;3.80;;
7783;SDS011;19359;51.402;6.778;2022-09-30T03:21:34;4.32;;;4.03;;
7783;SDS011;19359;51.402;6.778;2022-09-30T03:24:16;4.65;;;4.25;;
7783;SDS011;19359;51.402;6.778;2022-09-30T03:26:53;10.10;;;4.32;;
7783;SDS011;19359;51.402;6.778;2022-09-30T03:29:31;11.13;;;4.80;;
7783;SDS011;19359;51.402;6.778;2022-09-30T03:32:06;8.75;;;4.65;;
7783;SDS011;19359;51.402;6.778;2022-09-30T03:34:50;5.93;;;4.60;;
7783;SDS011;19359;51.402;6.778;2022-09-30T03:37:25;5.68;;;5.18;;
7783;SDS011;19359;51.402;6.778;2022-09-30T03:39:58;6.93;;;5.32;;
7783;SDS011;19359;51.402;6.778;2022-09-30T03:42:31;10.18;;;5.13;;
7783;SDS011;19359;51.402;6.778;2022-09-30T03:45:04;5.43;;;5.00;;
7783;SDS011;19359;51.402;6.778;2022-09-30T03:47:43;5.13;;;4.65;;
7783;SDS011;19359;51.402;6.778;2022-09-30T03:50:14;4.82;;;4.38;;
7783;SDS011;19359;51.402;6.778;2022-09-30T03:52:44;6.05;;;4.75;;
7783;SDS011;19359;51.402;6.778;2022-09-30T03:55:12;5.35;;;4.88;;
7783;SDS011;19359;51.402;6.778;2022-09-30T03:57:41;5.35;;;4.85;;
7783;SDS011;19359;51.402;6.778;2022-09-30T04:00:09;5.03;;;4.55;;
7783;SDS011;19359;51.402;6.778;2022-09-30T04:02:37;4.80;;;4.38;;
7783;SDS011;19359;51.402;6.778;2022-09-30T04:05:04;4.70;;;4.38;;
7783;SDS011;19359;51.402;6.778;2022-09-30T04:07:34;5.63;;;5.10;;
7783;SDS011;19359;51.402;6.778;2022-09-30T04:10:01;6.75;;;5.13;;
7783;SDS011;19359;51.402;6.778;2022-09-30T04:12:28;9.25;;;5.38;;
7783;SDS011;19359;51.402;6.778;2022-09-30T04:14:55;5.38;;;4.88;;
7783;SDS011;19359;51.402;6.778;2022-09-30T04:17:21;5.80;;;5.30;;
7783;SDS011;19359;51.402;6.778;2022-09-30T04:19:48;4.85;;;4.45;;
7783;SDS011;19359;51.402;6.778;2022-09-30T04:22:15;5.88;;;5.38;;
7783;SDS011;19359;51.402;6.778;2022-09-30T04:24:43;8.75;;;5.10;;
7783;SDS011;19359;51.402;6.778;2022-09-30T04:27:11;4.82;;;4.47;;
7783;SDS011;19359;51.402;6.778;2022-09-30T04:29:38;6.65;;;4.85;;
7783;SDS011;19359;51.402;6.778;2022-09-30T04:32:04;5.90;;;4.90;;
7783;SDS011;19359;51.402;6.778;2022-09-30T04:34:31;4.70;;;4.25;;
7783;SDS011;19359;51.402;6.778;2022-09-30T04:36:58;6.57;;;5.15;;
7783;SDS011;19359;51.402;6.778;2022-09-30T04:39:25;8.05;;;4.95;;
7783;SDS011;19359;51.402;6.778;2022-09-30T04:41:53;5.78;;;4.55;;
7783;SDS011;19359;51.402;6.778;2022-09-30T04:44:20;4.85;;;4.43;;
7783;SDS011;19359;51.402;6.778;2022-09-30T04:46:47;8.60;;;5.15;;
7783;SDS011;19359;51.402;6.778;2022-09-30T04:49:14;5.40;;;4.90;;
7783;SDS011;19359;51.402;6.778;2022-09-30T04:51:41;8.10;;;5.13;;
7783;SDS011;19359;51.402;6.778;2022-09-30T04:54:10;17.40;;;5.18;;
7783;SDS011;19359;51.402;6.778;2022-09-30T04:56:37;6.72;;;5.20;;
7783;SDS011;19359;51.402;6.778;2022-09-30T04:59:05;7.53;;;4.75;;
7783;SDS011;19359;51.402;6.778;2022-09-30T05:01:32;6.47;;;4.88;;
7783;SDS011;19359;51.402;6.778;2022-09-30T05:03:59;5.97;;;4.72;;
7783;SDS011;19359;51.402;6.778;2022-09-30T05:06:26;5.97;;;4.60;;
7783;SDS011;19359;51.402;6.778;2022-09-30T05:08:53;5.43;;;4.53;;
7783;SDS011;19359;51.402;6.778;2022-09-30T05:11:20;6.78;;;4.90;;
7783;SDS011;19359;51.402;6.778;2022-09-30T05:13:48;8.73;;;4.32;;
7783;SDS011;19359;51.402;6.778;2022-09-30T05:16:16;5.50;;;4.53;;
7783;SDS011;19359;51.402;6.778;2022-09-30T05:18:43;5.50;;;4.72;;
7783;SDS011;19359;51.402;6.778;2022-09-30T05:21:11;5.32;;;4.18;;
7783;SDS011;19359;51.402;6.778;2022-09-30T05:23:38;5.97;;;5.30;;
7783;SDS011;19359;51.402;6.778;2022-09-30T05:26:05;5.03;;;4.57;;
7783;SDS011;19359;51.402;6.778;2022-09-30T05:28:32;5.78;;;5.22;;
7783;SDS011;19359;51.402;6.778;2022-09-30T05:30:59;7.72;;;4.88;;
7783;SDS011;19359;51.402;6.778;2022-09-30T05:33:29;6.28;;;5.40;;
7783;SDS011;19359;51.402;6.778;2022-09-30T05:35:59;5.07;;;4.68;;
7783;SDS011;19359;51.402;6.778;2022-09-30T05:38:27;6.15;;;5.32;;
7783;SDS011;19359;51.402;6.778;2022-09-30T05:40:54;5.18;;;4.50;;
7783;SDS011;19359;51.402;6.778;2022-09-30T05:43:21;5.45;;;4.80;;
7783;SDS011;19359;51.402;6.778;2022-09-30T05:45:51;9.35;;;4.32;;
7783;SDS011;19359;51.402;6.778;2022-09-30T05:48:19;4.75;;;4.22;;
7783;SDS011;19359;51.402;6.778;2022-09-30T05:50:47;6.50;;;4.85;;
7783;SDS011;19359;51.402;6.778;2022-09-30T05:53:15;4.32;;;4.03;;
7783;SDS011;19359;51.402;6.778;2022-09-30T05:55:44;5.63;;;5.10;;
7783;SDS011;19359;51.402;6.778;2022-09-30T05:58:11;7.13;;;5.57;;
7783;SDS011;19359;51.402;6.778;2022-09-30T06:00:39;4.38;;;3.97;;
7783;SDS011;19359;51.402;6.778;2022-09-30T06:03:06;6.70;;;4.50;;
7783;SDS011;19359;51.402;6.778;2022-09-30T06:05:33;5.05;;;4.63;;
7783;SDS011;19359;51.402;6.778;2022-09-30T06:08:02;6.57;;;4.55;;
7783;SDS011;19359;51.402;6.778;2022-09-30T06:10:31;5.68;;;5.05;;
7783;SDS011;19359;51.402;6.778;2022-09-30T06:12:59;6.93;;;4.43;;
7783;SDS011;19359;51.402;6.778;2022-09-30T06:15:27;5.13;;;4.80;;
7783;SDS011;19359;51.402;6.778;2022-09-30T06:17:54;9.52;;;5.03;;
7783;SDS011;19359;51.402;6.778;2022-09-30T06:20:21;5.22;;;4.85;;
7783;SDS011;19359;51.402;6.778;2022-09-30T06:22:48;5.53;;;5.05;;
7783;SDS011;19359;51.402;6.778;2022-09-30T06:25:16;5.82;;;5.15;;
7783;SDS011;19359;51.402;6.778;2022-09-30T06:27:43;6.57;;;5.93;;
7783;SDS011;19359;51.402;6.778;2022-09-30T06:30:11;5.30;;;4.95;;
7783;SDS011;19359;51.402;6.778;2022-09-30T06:32:38;6.95;;;5.85;;
7783;SDS011;19359;51.402;6.778;2022-09-30T06:35:06;11.35;;;6.05;;
7783;SDS011;19359;51.402;6.778;2022-09-30T06:37:34;7.30;;;6.60;;
7783;SDS011;19359;51.402;6.778;2022-09-30T06:40:02;7.60;;;6.75;;
7783;SDS011;19359;51.402;6.778;2022-09-30T06:42:30;8.30;;;7.25;;
7783;SDS011;19359;51.402;6.778;2022-09-30T06:44:58;7.75;;;6.80;;
7783;SDS011;19359;51.402;6.778;2022-09-30T06:47:24;8.73;;;7.70;;
7783;SDS011;19359;51.402;6.778;2022-09-30T06:53:13;16.45;;;8.18;;
7783;SDS011;19359;51.402;6.778;2022-09-30T06:55:40;12.35;;;7.03;;
7783;SDS011;19359;51.402;6.778;2022-09-30T06:58:14;9.95;;;8.07;;
7783;SDS011;19359;51.402;6.778;2022-09-30T07:00:41;14.25;;;8.25;;
7783;SDS011;19359;51.402;6.778;2022-09-30T07:03:08;11.00;;;7.93;;
7783;SDS011;19359;51.402;6.778;2022-09-30T07:05:52;10.75;;;7.85;;
7783;SDS011;19359;51.402;6.778;2022-09-30T07:08:21;8.35;;;7.50;;
7783;SDS011;19359;51.402;6.778;2022-09-30T07:10:49;17.02;;;8.20;;
7783;SDS011;19359;51.402;6.778;2022-09-30T07:13:18;11.55;;;9.27;;
7783;SDS011;19359;51.402;6.778;2022-09-30T07:15:45;11.43;;;8.63;;
7783;SDS011;19359;51.402;6.778;2022-09-30T07:18:11;13.05;;;9.38;;
7783;SDS011;19359;51.402;6.778;2022-09-30T07:24:00;12.30;;;8.35;;
7783;SDS011;19359;51.402;6.778;2022-09-30T07:26:27;9.48;;;8.48;;
7783;SDS011;19359;51.402;6.778;2022-09-30T07:28:56;13.45;;;9.70;;
7783;SDS011;19359;51.402;6.778;2022-09-30T07:31:24;13.52;;;9.25;;
7783;SDS011;19359;51.402;6.778;2022-09-30T07:33:52;13.05;;;8.38;;
7783;SDS011;19359;51.402;6.778;2022-09-30T07:36:20;17.77;;;9.70;;
7783;SDS011;19359;51.402;6.778;2022-09-30T07:38:51;13.38;;;9.10;;
7783;SDS011;19359;51.402;6.778;2022-09-30T07:41:20;11.88;;;9.75;;
7783;SDS011;19359;51.402;6.778;2022-09-30T07:43:51;18.58;;;9.23;;
7783;SDS011;19359;51.402;6.778;2022-09-30T07:46:22;15.95;;;10.02;;
7783;SDS011;19359;51.402;6.778;2022-09-30T07:48:50;15.82;;;9.82;;
7783;SDS011;19359;51.402;6.778;2022-09-30T07:51:22;12.23;;;9.52;;
7783;SDS011;19359;51.402;6.778;2022-09-30T07:53:52;11.95;;;9.50;;
7783;SDS011;19359;51.402;6.778;2022-09-30T07:56:20;11.90;;;8.60;;
7783;SDS011;19359;51.402;6.778;2022-09-30T07:58:48;15.38;;;10.00;;
7783;SDS011;19359;51.402;6.778;2022-09-30T08:01:18;18.13;;;11.70;;
7783;SDS011;19359;51.402;6.778;2022-09-30T08:03:46;14.20;;;9.70;;
7783;SDS011;19359;51.402;6.778;2022-09-30T08:06:14;14.20;;;9.57;;
7783;SDS011;19359;51.402;6.778;2022-09-30T08:08:43;12.85;;;10.05;;
7783;SDS011;19359;51.402;6.778;2022-09-30T08:11:10;13.00;;;10.70;;
7783;SDS011;19359;51.402;6.778;2022-09-30T08:13:39;10.93;;;9.52;;
7783;SDS011;19359;51.402;6.778;2022-09-30T08:16:06;11.98;;;9.30;;
7783;SDS011;19359;51.402;6.778;2022-09-30T08:18:33;16.42;;;10.55;;
7783;SDS011;19359;51.402;6.778;2022-09-30T08:21:02;14.20;;;10.23;;
7783;SDS011;19359;51.402;6.778;2022-09-30T08:23:30;17.20;;;10.68;;
7783;SDS011;19359;51.402;6.778;2022-09-30T08:26:01;11.93;;;9.90;;
7783;SDS011;19359;51.402;6.778;2022-09-30T08:28:29;12.88;;;10.85;;
7783;SDS011;19359;51.402;6.778;2022-09-30T08:31:02;16.88;;;11.00;;
7783;SDS011;19359;51.402;6.778;2022-09-30T08:33:30;12.40;;;11.10;;
7783;SDS011;19359;51.402;6.778;2022-09-30T08:36:01;12.98;;;11.68;;
7783;SDS011;19359;51.402;6.778;2022-09-30T08:38:29;14.75;;;10.98;;
7783;SDS011;19359;51.402;6.778;2022-09-30T08:40:59;13.90;;;10.70;;
7783;SDS011;19359;51.402;6.778;2022-09-30T08:43:39;17.77;;;13.18;;
7783;SDS011;19359;51.402;6.778;2022-09-30T08:46:10;23.73;;;12.05;;
7783;SDS011;19359;51.402;6.778;2022-09-30T08:48:47;16.55;;;11.73;;
7783;SDS011;19359;51.402;6.778;2022-09-30T08:51:28;17.80;;;11.88;;
7783;SDS011;19359;51.402;6.778;2022-09-30T08:53:58;17.48;;;12.93;;
7783;SDS011;19359;51.402;6.778;2022-09-30T08:56:28;16.27;;;11.90;;
7783;SDS011;19359;51.402;6.778;2022-09-30T08:58:58;13.98;;;11.65;;
7783;SDS011;19359;51.402;6.778;2022-09-30T09:01:31;19.27;;;12.80;;
7783;SDS011;19359;51.402;6.778;2022-09-30T09:03:59;14.75;;;11.75;;
7783;SDS011;19359;51.402;6.778;2022-09-30T09:06:32;16.38;;;11.75;;
7783;SDS011;19359;51.402;6.778;2022-09-30T09:11:58;16.35;;;12.55;;
7783;SDS011;19359;51.402;6.778;2022-09-30T09:14:35;12.77;;;10.90;;
7783;SDS011;19359;51.402;6.778;2022-09-30T09:17:11;13.20;;;11.55;;
7783;SDS011;19359;51.402;6.778;2022-09-30T09:19:45;15.30;;;10.52;;
7783;SDS011;19359;51.402;6.778;2022-09-30T09:22:19;15.70;;;11.73;;
7783;SDS011;19359;51.402;6.778;2022-09-30T09:24:49;16.30;;;11.57;;
7783;SDS011;19359;51.402;6.778;2022-09-30T09:27:18;20.52;;;13.18;;
7783;SDS011;19359;51.402;6.778;2022-09-30T09:29:50;13.52;;;12.13;;
7783;SDS011;19359;51.402;6.778;2022-09-30T09:32:25;15.15;;;10.38;;
7783;SDS011;19359;51.402;6.778;2022-09-30T09:34:54;16.63;;;12.30;;
7783;SDS011;19359;51.402;6.778;2022-09-30T09:37:27;14.90;;;12.18;;
7783;SDS011;19359;51.402;6.778;2022-09-30T09:40:30;17.63;;;12.15;;
7783;SDS011;19359;51.402;6.778;2022-09-30T09:43:07;17.45;;;11.90;;
7783;SDS011;19359;51.402;6.778;2022-09-30T09:45:46;14.50;;;12.40;;
7783;SDS011;19359;51.402;6.778;2022-09-30T09:48:19;18.65;;;12.73;;
7783;SDS011;19359;51.402;6.778;2022-09-30T09:50:48;18.63;;;13.23;;
7783;SDS011;19359;51.402;6.778;2022-09-30T09:53:29;15.27;;;10.68;;
7783;SDS011;19359;51.402;6.778;2022-09-30T09:56:08;17.13;;;12.02;;
7783;SDS011;19359;51.402;6.778;2022-09-30T10:01:46;17.60;;;12.35;;
7783;SDS011;19359;51.402;6.778;2022-09-30T10:04:15;15.85;;;12.57;;
7783;SDS011;19359;51.402;6.778;2022-09-30T10:06:47;17.55;;;11.02;;
7783;SDS011;19359;51.402;6.778;2022-09-30T10:15:03;20.63;;;13.60;;
7783;SDS011;19359;51.402;6.778;2022-09-30T10:17:40;16.17;;;13.68;;
7783;SDS011;19359;51.402;6.778;2022-09-30T10:20:16;15.45;;;12.23;;
7783;SDS011;19359;51.402;6.778;2022-09-30T10:22:47;27.20;;;14.52;;
7783;SDS011;19359;51.402;6.778;2022-09-30T10:25:24;16.90;;;11.93;;
7783;SDS011;19359;51.402;6.778;2022-09-30T10:27:53;15.77;;;11.40;;
7783;SDS011;19359;51.402;6.778;2022-09-30T10:30:31;17.15;;;11.27;;
7783;SDS011;19359;51.402;6.778;2022-09-30T10:33:10;13.88;;;10.30;;
7783;SDS011;19359;51.402;6.778;2022-09-30T10:38:43;10.82;;;9.43;;
7783;SDS011;19359;51.402;6.778;2022-09-30T10:41:15;10.88;;;9.30;;
7783;SDS011;19359;51.402;6.778;2022-09-30T10:43:49;11.27;;;9.77;;
7783;SDS011;19359;51.402;6.778;2022-09-30T10:46:20;11.82;;;9.38;;
7783;SDS011;19359;51.402;6.778;2022-09-30T10:48:48;13.63;;;10.40;;
7783;SDS011;19359;51.402;6.778;2022-09-30T10:51:20;14.45;;;9.32;;
7783;SDS011;19359;51.402;6.778;2022-09-30T10:53:51;11.57;;;8.20;;
7783;SDS011;19359;51.402;6.778;2022-09-30T10:56:32;10.70;;;8.98;;
7783;SDS011;19359;51.402;6.778;2022-09-30T10:59:03;12.20;;;8.35;;
7783;SDS011;19359;51.402;6.778;2022-09-30T11:01:40;11.30;;;9.55;;
7783;SDS011;19359;51.402;6.778;2022-09-30T11:04:14;9.23;;;8.20;;
7783;SDS011;19359;51.402;6.778;2022-09-30T11:06:48;9.68;;;7.85;;
7783;SDS011;19359;51.402;6.778;2022-09-30T11:09:19;10.95;;;8.52;;
7783;SDS011;19359;51.402;6.778;2022-09-30T11:11:54;10.57;;;8.48;;
7783;SDS011;19359;51.402;6.778;2022-09-30T11:14:28;9.95;;;7.93;;
7783;SDS011;19359;51.402;6.778;2022-09-30T11:17:04;9.45;;;7.78;;
7783;SDS011;19359;51.402;6.778;2022-09-30T11:19:38;8.38;;;7.63;;
7783;SDS011;19359;51.402;6.778;2022-09-30T11:22:22;9.52;;;7.55;;
7783;SDS011;19359;51.402;6.778;2022-09-30T11:24:58;12.57;;;7.88;;
7783;SDS011;19359;51.402;6.778;2022-09-30T11:27:30;7.20;;;6.57;;
7783;SDS011;19359;51.402;6.778;2022-09-30T11:30:09;11.35;;;6.15;;
7783;SDS011;19359;51.402;6.778;2022-09-30T11:32:43;6.63;;;5.85;;
7783;SDS011;19359;51.402;6.778;2022-09-30T11:35:25;9.63;;;6.10;;
7783;SDS011;19359;51.402;6.778;2022-09-30T11:38:08;6.78;;;6.10;;
7783;SDS011;19359;51.402;6.778;2022-09-30T11:40:42;6.97;;;6.32;;
7783;SDS011;19359;51.402;6.778;2022-09-30T11:43:19;8.15;;;6.28;;
7783;SDS011;19359;51.402;6.778;2022-09-30T11:46:07;9.43;;;5.90;;
7783;SDS011;19359;51.402;6.778;2022-09-30T11:48:56;5.95;;;5.10;;
7783;SDS011;19359;51.402;6.778;2022-09-30T11:51:35;5.70;;;4.35;;
7783;SDS011;19359;51.402;6.778;2022-09-30T11:54:14;8.65;;;4.88;;
7783;SDS011;19359;51.402;6.778;2022-09-30T11:56:52;5.45;;;4.72;;
7783;SDS011;19359;51.402;6.778;2022-09-30T11:59:25;4.63;;;4.03;;
7783;SDS011;19359;51.402;6.778;2022-09-30T12:01:56;6.40;;;5.22;;
7783;SDS011;19359;51.402;6.778;2022-09-30T12:04:28;6.38;;;5.68;;
7783;SDS011;19359;51.402;6.778;2022-09-30T12:06:57;9.40;;;5.00;;
7783;SDS011;19359;51.402;6.778;2022-09-30T12:09:30;9.18;;;5.32;;
7783;SDS011;19359;51.402;6.778;2022-09-30T12:12:03;5.18;;;4.78;;
7783;SDS011;19359;51.402;6.778;2022-09-30T12:14:36;4.95;;;4.57;;
7783;SDS011;19359;51.402;6.778;2022-09-30T12:17:10;5.05;;;4.65;;
7783;SDS011;19359;51.402;6.778;2022-09-30T12:19:46;6.85;;;5.32;;
7783;SDS011;19359;51.402;6.778;2022-09-30T12:22:15;7.20;;;4.10;;
7783;SDS011;19359;51.402;6.778;2022-09-30T12:24:45;8.30;;;4.70;;
7783;SDS011;19359;51.402;6.778;2022-09-30T12:27:14;5.97;;;3.88;;
7783;SDS011;19359;51.402;6.778;2022-09-30T12:29:49;3.50;;;3.38;;
7783;SDS011;19359;51.402;6.778;2022-09-30T12:33:02;3.38;;;3.17;;
7783;SDS011;19359;51.402;6.778;2022-09-30T12:35:55;4.45;;;4.13;;
7783;SDS011;19359;51.402;6.778;2022-09-30T12:38:54;3.97;;;3.67;;
7783;SDS011;19359;51.402;6.778;2022-09-30T12:41:48;3.33;;;3.03;;
7783;SDS011;19359;51.402;6.778;2022-09-30T12:44:33;3.15;;;3.05;;
7783;SDS011;19359;51.402;6.778;2022-09-30T12:47:13;3.15;;;2.83;;
7783;SDS011;19359;51.402;6.778;2022-09-30T12:49:51;2.58;;;2.47;;
7783;SDS011;19359;51.402;6.778;2022-09-30T12:52:21;2.45;;;2.17;;
7783;SDS011;19359;51.402;6.778;2022-09-30T12:54:49;2.85;;;2.65;;
7783;SDS011;19359;51.402;6.778;2022-09-30T12:57:22;3.38;;;2.42;;
7783;SDS011;19359;51.402;6.778;2022-09-30T12:59:52;3.10;;;2.80;;
7783;SDS011;19359;51.402;6.778;2022-09-30T13:02:27;5.22;;;2.13;;
7783;SDS011;19359;51.402;6.778;2022-09-30T13:08:21;2.90;;;2.00;;
7783;SDS011;19359;51.402;6.778;2022-09-30T13:11:20;4.85;;;2.33;;
7783;SDS011;19359;51.402;6.778;2022-09-30T13:14:01;3.90;;;2.40;;
7783;SDS011;19359;51.402;6.778;2022-09-30T13:16:57;3.20;;;2.17;;
7783;SDS011;19359;51.402;6.778;2022-09-30T13:19:35;3.05;;;2.30;;
7783;SDS011;19359;51.402;6.778;2022-09-30T13:25:17;2.08;;;1.98;;
7783;SDS011;19359;51.402;6.778;2022-09-30T13:27:44;2.42;;;2.22;;
7783;SDS011;19359;51.402;6.778;2022-09-30T13:30:31;3.97;;;2.20;;
7783;SDS011;19359;51.402;6.778;2022-09-30T13:33:26;2.25;;;2.20;;
7783;SDS011;19359;51.402;6.778;2022-09-30T13:35:57;3.20;;;2.90;;
7783;SDS011;19359;51.402;6.778;2022-09-30T13:38:34;5.78;;;2.63;;
7783;SDS011;19359;51.402;6.778;2022-09-30T13:41:05;7.68;;;2.22;;
7783;SDS011;19359;51.402;6.778;2022-09-30T13:43:41;2.88;;;2.30;;
7783;SDS011;19359;51.402;6.778;2022-09-30T13:46:16;2.15;;;2.05;;
7783;SDS011;19359;51.402;6.778;2022-09-30T13:48:51;3.40;;;1.92;;
7783;SDS011;19359;51.402;6.778;2022-09-30T13:51:24;2.45;;;2.35;;
7783;SDS011;19359;51.402;6.778;2022-09-30T13:53:55;2.45;;;2.25;;
7783;SDS011;19359;51.402;6.778;2022-09-30T13:56:25;2.00;;;1.90;;
7783;SDS011;19359;51.402;6.778;2022-09-30T13:59:06;2.58;;;2.15;;
7783;SDS011;19359;51.402;6.778;2022-09-30T14:01:50;3.88;;;3.67;;
7783;SDS011;19359;51.402;6.778;2022-09-30T14:04:49;4.85;;;4.25;;
7783;SDS011;19359;51.402;6.778;2022-09-30T14:07:31;3.00;;;2.80;;
7783;SDS011;19359;51.402;6.778;2022-09-30T14:13:05;29.40;;;23.42;;
7783;SDS011;19359;51.402;6.778;2022-09-30T14:15:59;4.65;;;3.10;;
7783;SDS011;19359;51.402;6.778;2022-09-30T14:18:45;2.67;;;2.58;;
7783;SDS011;19359;51.402;6.778;2022-09-30T14:21:43;1.88;;;1.85;;
7783;SDS011;19359;51.402;6.778;2022-09-30T14:24:15;2.35;;;2.15;;
7783;SDS011;19359;51.402;6.778;2022-09-30T14:26:54;2.33;;;2.13;;
7783;SDS011;19359;51.402;6.778;2022-09-30T14:29:36;1.85;;;1.60;;
7783;SDS011;19359;51.402;6.778;2022-09-30T14:32:13;2.42;;;2.22;;
7783;SDS011;19359;51.402;6.778;2022-09-30T14:34:44;2.70;;;2.60;;
7783;SDS011;19359;51.402;6.778;2022-09-30T14:37:13;3.05;;;2.70;;
7783;SDS011;19359;51.402;6.778;2022-09-30T14:39:46;4.93;;;2.40;;
7783;SDS011;19359;51.402;6.778;2022-09-30T14:42:16;2.25;;;2.15;;
7783;SDS011;19359;51.402;6.778;2022-09-30T14:44:50;1.90;;;1.80;;
7783;SDS011;19359;51.402;6.778;2022-09-30T14:47:18;7.00;;;2.03;;
7783;SDS011;19359;51.402;6.778;2022-09-30T14:49:46;2.15;;;1.98;;
7783;SDS011;19359;51.402;6.778;2022-09-30T14:52:33;1.95;;;1.42;;
7783;SDS011;19359;51.402;6.778;2022-09-30T14:55:15;3.25;;;1.30;;
7783;SDS011;19359;51.402;6.778;2022-09-30T14:57:50;2.55;;;1.92;;
7783;SDS011;19359;51.402;6.778;2022-09-30T15:00:26;2.35;;;2.10;;
7783;SDS011;19359;51.402;6.778;2022-09-30T15:02:55;2.35;;;2.25;;
7783;SDS011;19359;51.402;6.778;2022-09-30T15:05:23;1.85;;;1.75;;
7783;SDS011;19359;51.402;6.778;2022-09-30T15:07:51;1.65;;;1.55;;
7783;SDS011;19359;51.402;6.778;2022-09-30T15:10:20;2.58;;;2.08;;
7783;SDS011;19359;51.402;6.778;2022-09-30T15:12:49;2.53;;;1.70;;
7783;SDS011;19359;51.402;6.778;2022-09-30T15:15:32;1.60;;;1.60;;
7783;SDS011;19359;51.402;6.778;2022-09-30T15:21:22;1.48;;;1.30;;
7783;SDS011;19359;51.402;6.778;2022-09-30T15:27:17;1.90;;;1.80;;
7783;SDS011;19359;51.402;6.778;2022-09-30T15:29:53;1.85;;;1.73;;
7783;SDS011;19359;51.402;6.778;2022-09-30T15:32:20;2.78;;;1.60;;
7783;SDS011;19359;51.402;6.778;2022-09-30T15:34:49;1.30;;;1.30;;
7783;SDS011;19359;51.402;6.778;2022-09-30T15:37:19;1.35;;;1.33;;
7783;SDS011;19359;51.402;6.778;2022-09-30T15:39:48;1.25;;;0.73;;
7783;SDS011;19359;51.402;6.778;2022-09-30T15:42:35;1.10;;;0.60;;
7783;SDS011;19359;51.402;6.778;2022-09-30T15:45:03;1.65;;;0.75;;
7783;SDS011;19359;51.402;6.778;2022-09-30T15:47:54;1.73;;;0.60;;
7783;SDS011;19359;51.402;6.778;2022-09-30T15:50:33;1.75;;;0.60;;
7783;SDS011;19359;51.402;6.778;2022-09-30T15:53:02;0.60;;;0.60;;
7783;SDS011;19359;51.402;6.778;2022-09-30T15:55:34;3.75;;;0.55;;
7783;SDS011;19359;51.402;6.778;2022-09-30T16:01:14;0.73;;;0.73;;
7783;SDS011;19359;51.402;6.778;2022-09-30T16:03:46;0.60;;;0.60;;
7783;SDS011;19359;51.402;6.778;2022-09-30T16:06:20;1.52;;;0.75;;
7783;SDS011;19359;51.402;6.778;2022-09-30T16:08:51;0.52;;;0.50;;
7783;SDS011;19359;51.402;6.778;2022-09-30T16:11:25;1.38;;;0.65;;
7783;SDS011;19359;51.402;6.778;2022-09-30T16:13:57;2.15;;;0.70;;
7783;SDS011;19359;51.402;6.778;2022-09-30T16:16:25;4.18;;;1.67;;